sensor_id;sensor_type;location;lat;lon;timestamp;P1;durP1;ratioP1;P2;durP2;ratioP2
63444;SDS011;49573;47.682;9.170;2024-01-11T00:02:19;32.25;;;14.73;;
63444;SDS011;49573;47.682;9.170;2024-01-11T00:05:06;34.03;;;15.10;;
63444;SDS011;49573;47.682;9.170;2024-01-11T00:07:54;30.38;;;14.60;;
63444;SDS011;49573;47.682;9.170;2024-01-11T00:10:40;33.28;;;14.27;;
63444;SDS011;49573;47.682;9.170;2024-01-11T00:13:26;32.40;;;14.35;;
63444;SDS011;49573;47.682;9.170;2024-01-11T00:16:12;31.70;;;13.45;;
63444;SDS011;49573;47.682;9.170;2024-01-11T00:18:58;34.38;;;14.27;;
63444;SDS011;49573;47.682;9.170;2024-01-11T00:21:44;33.17;;;13.90;;
63444;SDS011;49573;47.682;9.170;2024-01-11T00:24:31;35.63;;;15.18;;
63444;SDS011;49573;47.682;9.170;2024-01-11T00:27:17;28.87;;;14.17;;
63444;SDS011;49573;47.682;9.170;2024-01-11T00:30:04;36.33;;;15.27;;
63444;SDS011;49573;47.682;9.170;2024-01-11T00:32:51;35.10;;;15.45;;
63444;SDS011;49573;47.682;9.170;2024-01-11T00:35:37;30.25;;;13.70;;
63444;SDS011;49573;47.682;9.170;2024-01-11T00:38:23;33.17;;;15.00;;
63444;SDS011;49573;47.682;9.170;2024-01-11T00:41:11;31.90;;;14.47;;
63444;SDS011;49573;47.682;9.170;2024-01-11T00:43:57;31.77;;;14.20;;
63444;SDS011;49573;47.682;9.170;2024-01-11T00:46:43;32.10;;;13.90;;
63444;SDS011;49573;47.682;9.170;2024-01-11T00:49:29;36.55;;;15.35;;
63444;SDS011;49573;47.682;9.170;2024-01-11T00:52:15;33.03;;;14.67;;
63444;SDS011;49573;47.682;9.170;2024-01-11T00:55:01;31.85;;;14.65;;
63444;SDS011;49573;47.682;9.170;2024-01-11T00:57:49;34.87;;;15.60;;
63444;SDS011;49573;47.682;9.170;2024-01-11T01:00:35;39.53;;;16.95;;
63444;SDS011;49573;47.682;9.170;2024-01-11T01:03:22;36.77;;;15.90;;
63444;SDS011;49573;47.682;9.170;2024-01-11T01:06:08;36.03;;;14.85;;
63444;SDS011;49573;47.682;9.170;2024-01-11T01:08:55;31.63;;;13.45;;
63444;SDS011;49573;47.682;9.170;2024-01-11T01:11:41;41.15;;;16.88;;
63444;SDS011;49573;47.682;9.170;2024-01-11T01:14:28;41.47;;;17.17;;
63444;SDS011;49573;47.682;9.170;2024-01-11T01:17:14;41.60;;;17.95;;
63444;SDS011;49573;47.682;9.170;2024-01-11T01:20:00;38.20;;;17.90;;
63444;SDS011;49573;47.682;9.170;2024-01-11T01:22:46;42.28;;;18.30;;
63444;SDS011;49573;47.682;9.170;2024-01-11T01:25:32;47.17;;;20.55;;
63444;SDS011;49573;47.682;9.170;2024-01-11T01:28:18;40.75;;;17.65;;
63444;SDS011;49573;47.682;9.170;2024-01-11T01:31:06;34.88;;;15.60;;
63444;SDS011;49573;47.682;9.170;2024-01-11T01:33:52;31.80;;;14.37;;
63444;SDS011;49573;47.682;9.170;2024-01-11T01:36:38;33.10;;;14.75;;
63444;SDS011;49573;47.682;9.170;2024-01-11T01:39:24;32.17;;;14.87;;
63444;SDS011;49573;47.682;9.170;2024-01-11T01:42:10;31.17;;;15.65;;
63444;SDS011;49573;47.682;9.170;2024-01-11T01:44:56;34.95;;;15.60;;
63444;SDS011;49573;47.682;9.170;2024-01-11T01:47:43;37.97;;;16.75;;
63444;SDS011;49573;47.682;9.170;2024-01-11T01:50:29;34.05;;;15.60;;
63444;SDS011;49573;47.682;9.170;2024-01-11T01:53:16;37.90;;;16.52;;
63444;SDS011;49573;47.682;9.170;2024-01-11T01:58:51;37.90;;;16.67;;
63444;SDS011;49573;47.682;9.170;2024-01-11T02:01:38;38.15;;;17.10;;
63444;SDS011;49573;47.682;9.170;2024-01-11T02:04:26;38.33;;;16.50;;
63444;SDS011;49573;47.682;9.170;2024-01-11T02:07:13;37.87;;;16.67;;
63444;SDS011;49573;47.682;9.170;2024-01-11T02:09:59;38.42;;;17.85;;
63444;SDS011;49573;47.682;9.170;2024-01-11T02:12:45;40.20;;;17.50;;
63444;SDS011;49573;47.682;9.170;2024-01-11T02:15:32;40.88;;;19.08;;
63444;SDS011;49573;47.682;9.170;2024-01-11T02:18:18;41.55;;;18.50;;
63444;SDS011;49573;47.682;9.170;2024-01-11T02:21:06;40.95;;;18.83;;
63444;SDS011;49573;47.682;9.170;2024-01-11T02:24:00;44.65;;;19.23;;
63444;SDS011;49573;47.682;9.170;2024-01-11T02:26:57;40.97;;;19.02;;
63444;SDS011;49573;47.682;9.170;2024-01-11T02:29:47;39.63;;;17.83;;
63444;SDS011;49573;47.682;9.170;2024-01-11T02:32:33;40.80;;;19.70;;
63444;SDS011;49573;47.682;9.170;2024-01-11T02:35:19;41.95;;;18.80;;
63444;SDS011;49573;47.682;9.170;2024-01-11T02:38:06;42.55;;;20.25;;
63444;SDS011;49573;47.682;9.170;2024-01-11T02:40:53;45.53;;;18.50;;
63444;SDS011;49573;47.682;9.170;2024-01-11T02:43:40;43.45;;;19.75;;
63444;SDS011;49573;47.682;9.170;2024-01-11T02:46:26;39.90;;;18.60;;
63444;SDS011;49573;47.682;9.170;2024-01-11T02:49:12;37.90;;;17.20;;
63444;SDS011;49573;47.682;9.170;2024-01-11T02:51:58;41.47;;;18.77;;
63444;SDS011;49573;47.682;9.170;2024-01-11T02:54:44;48.73;;;20.23;;
63444;SDS011;49573;47.682;9.170;2024-01-11T02:57:31;45.03;;;19.27;;
63444;SDS011;49573;47.682;9.170;2024-01-11T03:00:17;41.03;;;19.63;;
63444;SDS011;49573;47.682;9.170;2024-01-11T03:03:04;40.03;;;19.35;;
63444;SDS011;49573;47.682;9.170;2024-01-11T03:05:50;42.80;;;19.33;;
63444;SDS011;49573;47.682;9.170;2024-01-11T03:08:36;41.00;;;18.80;;
63444;SDS011;49573;47.682;9.170;2024-01-11T03:11:22;40.40;;;19.40;;
63444;SDS011;49573;47.682;9.170;2024-01-11T03:14:10;44.80;;;20.07;;
63444;SDS011;49573;47.682;9.170;2024-01-11T03:16:56;45.80;;;20.43;;
63444;SDS011;49573;47.682;9.170;2024-01-11T03:19:42;44.63;;;19.53;;
63444;SDS011;49573;47.682;9.170;2024-01-11T03:22:28;48.37;;;20.47;;
63444;SDS011;49573;47.682;9.170;2024-01-11T03:25:14;41.53;;;19.80;;
63444;SDS011;49573;47.682;9.170;2024-01-11T03:28:00;47.03;;;21.05;;
63444;SDS011;49573;47.682;9.170;2024-01-11T03:30:47;45.07;;;20.33;;
63444;SDS011;49573;47.682;9.170;2024-01-11T03:33:33;44.17;;;20.20;;
63444;SDS011;49573;47.682;9.170;2024-01-11T03:36:22;49.50;;;20.17;;
63444;SDS011;49573;47.682;9.170;2024-01-11T03:39:09;49.73;;;21.83;;
63444;SDS011;49573;47.682;9.170;2024-01-11T03:41:55;45.50;;;20.80;;
63444;SDS011;49573;47.682;9.170;2024-01-11T03:44:41;51.13;;;20.67;;
63444;SDS011;49573;47.682;9.170;2024-01-11T03:47:28;47.33;;;21.33;;
63444;SDS011;49573;47.682;9.170;2024-01-11T03:50:14;51.50;;;21.37;;
63444;SDS011;49573;47.682;9.170;2024-01-11T03:53:00;49.57;;;21.97;;
63444;SDS011;49573;47.682;9.170;2024-01-11T03:55:48;49.10;;;21.92;;
63444;SDS011;49573;47.682;9.170;2024-01-11T03:58:35;48.83;;;20.50;;
63444;SDS011;49573;47.682;9.170;2024-01-11T04:01:21;48.73;;;22.20;;
63444;SDS011;49573;47.682;9.170;2024-01-11T04:04:09;48.63;;;21.60;;
63444;SDS011;49573;47.682;9.170;2024-01-11T04:06:56;51.50;;;22.47;;
63444;SDS011;49573;47.682;9.170;2024-01-11T04:09:42;50.57;;;22.63;;
63444;SDS011;49573;47.682;9.170;2024-01-11T04:12:28;55.00;;;22.93;;
63444;SDS011;49573;47.682;9.170;2024-01-11T04:15:14;46.67;;;21.93;;
63444;SDS011;49573;47.682;9.170;2024-01-11T04:18:00;50.03;;;22.20;;
63444;SDS011;49573;47.682;9.170;2024-01-11T04:20:47;48.43;;;21.93;;
63444;SDS011;49573;47.682;9.170;2024-01-11T04:23:33;52.90;;;21.83;;
63444;SDS011;49573;47.682;9.170;2024-01-11T04:26:20;46.63;;;20.83;;
63444;SDS011;49573;47.682;9.170;2024-01-11T04:29:06;50.40;;;21.50;;
63444;SDS011;49573;47.682;9.170;2024-01-11T04:31:52;47.03;;;21.07;;
63444;SDS011;49573;47.682;9.170;2024-01-11T04:34:38;51.93;;;22.00;;
63444;SDS011;49573;47.682;9.170;2024-01-11T04:37:26;49.33;;;21.45;;
63444;SDS011;49573;47.682;9.170;2024-01-11T04:40:12;51.40;;;20.90;;
63444;SDS011;49573;47.682;9.170;2024-01-11T04:42:58;45.90;;;21.47;;
63444;SDS011;49573;47.682;9.170;2024-01-11T04:45:44;46.67;;;20.53;;
63444;SDS011;49573;47.682;9.170;2024-01-11T04:48:30;45.53;;;20.60;;
63444;SDS011;49573;47.682;9.170;2024-01-11T04:51:16;50.80;;;21.80;;
63444;SDS011;49573;47.682;9.170;2024-01-11T04:54:04;42.45;;;19.02;;
63444;SDS011;49573;47.682;9.170;2024-01-11T04:56:50;46.70;;;20.57;;
63444;SDS011;49573;47.682;9.170;2024-01-11T04:59:36;52.57;;;21.80;;
63444;SDS011;49573;47.682;9.170;2024-01-11T05:02:22;45.33;;;21.10;;
63444;SDS011;49573;47.682;9.170;2024-01-11T05:05:08;49.70;;;21.93;;
63444;SDS011;49573;47.682;9.170;2024-01-11T05:07:54;47.47;;;20.50;;
63444;SDS011;49573;47.682;9.170;2024-01-11T05:10:42;44.83;;;20.90;;
63444;SDS011;49573;47.682;9.170;2024-01-11T05:13:28;51.00;;;20.93;;
63444;SDS011;49573;47.682;9.170;2024-01-11T05:16:18;49.13;;;21.92;;
63444;SDS011;49573;47.682;9.170;2024-01-11T05:19:05;51.37;;;21.63;;
63444;SDS011;49573;47.682;9.170;2024-01-11T05:21:51;49.03;;;20.97;;
63444;SDS011;49573;47.682;9.170;2024-01-11T05:24:37;52.27;;;21.63;;
63444;SDS011;49573;47.682;9.170;2024-01-11T05:27:24;47.07;;;20.13;;
63444;SDS011;49573;47.682;9.170;2024-01-11T05:30:10;48.93;;;21.77;;
63444;SDS011;49573;47.682;9.170;2024-01-11T05:32:56;48.47;;;21.10;;
63444;SDS011;49573;47.682;9.170;2024-01-11T05:35:43;49.75;;;21.73;;
63444;SDS011;49573;47.682;9.170;2024-01-11T05:38:29;46.10;;;20.63;;
63444;SDS011;49573;47.682;9.170;2024-01-11T05:41:15;47.22;;;22.17;;
63444;SDS011;49573;47.682;9.170;2024-01-11T05:44:02;53.03;;;21.73;;
63444;SDS011;49573;47.682;9.170;2024-01-11T05:46:49;50.73;;;21.70;;
63444;SDS011;49573;47.682;9.170;2024-01-11T05:49:35;51.07;;;21.53;;
63444;SDS011;49573;47.682;9.170;2024-01-11T05:52:21;47.13;;;20.47;;
63444;SDS011;49573;47.682;9.170;2024-01-11T05:55:07;47.27;;;21.13;;
63444;SDS011;49573;47.682;9.170;2024-01-11T05:57:54;47.03;;;20.50;;
63444;SDS011;49573;47.682;9.170;2024-01-11T06:00:41;51.37;;;21.70;;
63444;SDS011;49573;47.682;9.170;2024-01-11T06:03:27;51.80;;;21.80;;
63444;SDS011;49573;47.682;9.170;2024-01-11T06:06:13;47.60;;;20.90;;
63444;SDS011;49573;47.682;9.170;2024-01-11T06:08:59;46.08;;;20.80;;
63444;SDS011;49573;47.682;9.170;2024-01-11T06:11:45;46.97;;;20.83;;
63444;SDS011;49573;47.682;9.170;2024-01-11T06:14:31;44.57;;;19.97;;
63444;SDS011;49573;47.682;9.170;2024-01-11T06:17:19;43.77;;;18.33;;
63444;SDS011;49573;47.682;9.170;2024-01-11T06:20:05;45.53;;;20.23;;
63444;SDS011;49573;47.682;9.170;2024-01-11T06:22:51;40.10;;;17.00;;
63444;SDS011;49573;47.682;9.170;2024-01-11T06:25:37;40.13;;;17.97;;
63444;SDS011;49573;47.682;9.170;2024-01-11T06:28:24;42.90;;;18.57;;
63444;SDS011;49573;47.682;9.170;2024-01-11T06:31:09;39.77;;;17.33;;
63444;SDS011;49573;47.682;9.170;2024-01-11T06:33:57;43.00;;;17.23;;
63444;SDS011;49573;47.682;9.170;2024-01-11T06:36:43;38.17;;;17.37;;
63444;SDS011;49573;47.682;9.170;2024-01-11T06:39:29;40.90;;;18.45;;
63444;SDS011;49573;47.682;9.170;2024-01-11T06:42:15;39.47;;;18.03;;
63444;SDS011;49573;47.682;9.170;2024-01-11T06:45:01;46.10;;;20.07;;
63444;SDS011;49573;47.682;9.170;2024-01-11T06:47:48;44.03;;;18.87;;
63444;SDS011;49573;47.682;9.170;2024-01-11T06:50:36;42.30;;;19.23;;
63444;SDS011;49573;47.682;9.170;2024-01-11T06:53:22;43.33;;;18.90;;
63444;SDS011;49573;47.682;9.170;2024-01-11T06:56:13;41.67;;;19.63;;
63444;SDS011;49573;47.682;9.170;2024-01-11T06:58:59;48.53;;;20.63;;
63444;SDS011;49573;47.682;9.170;2024-01-11T07:01:45;44.08;;;18.45;;
63444;SDS011;49573;47.682;9.170;2024-01-11T07:04:32;45.97;;;20.00;;
63444;SDS011;49573;47.682;9.170;2024-01-11T07:07:19;43.00;;;19.67;;
63444;SDS011;49573;47.682;9.170;2024-01-11T07:10:06;45.17;;;19.47;;
63444;SDS011;49573;47.682;9.170;2024-01-11T07:12:54;43.63;;;20.27;;
63444;SDS011;49573;47.682;9.170;2024-01-11T07:15:40;48.27;;;20.40;;
63444;SDS011;49573;47.682;9.170;2024-01-11T07:18:26;42.67;;;18.53;;
63444;SDS011;49573;47.682;9.170;2024-01-11T07:21:12;46.53;;;19.93;;
63444;SDS011;49573;47.682;9.170;2024-01-11T07:23:59;43.63;;;18.67;;
63444;SDS011;49573;47.682;9.170;2024-01-11T07:26:45;42.03;;;20.00;;
63444;SDS011;49573;47.682;9.170;2024-01-11T07:29:31;47.33;;;19.88;;
63444;SDS011;49573;47.682;9.170;2024-01-11T07:32:18;43.45;;;18.48;;
63444;SDS011;49573;47.682;9.170;2024-01-11T07:35:04;47.03;;;18.70;;
63444;SDS011;49573;47.682;9.170;2024-01-11T07:37:52;48.00;;;20.40;;
63444;SDS011;49573;47.682;9.170;2024-01-11T07:40:39;44.30;;;19.03;;
63444;SDS011;49573;47.682;9.170;2024-01-11T07:43:25;43.23;;;19.30;;
63444;SDS011;49573;47.682;9.170;2024-01-11T07:46:13;41.70;;;19.10;;
63444;SDS011;49573;47.682;9.170;2024-01-11T07:48:59;40.40;;;18.23;;
63444;SDS011;49573;47.682;9.170;2024-01-11T07:51:45;44.40;;;18.43;;
63444;SDS011;49573;47.682;9.170;2024-01-11T07:54:31;43.07;;;19.27;;
63444;SDS011;49573;47.682;9.170;2024-01-11T07:57:18;43.83;;;19.45;;
63444;SDS011;49573;47.682;9.170;2024-01-11T08:00:05;38.43;;;17.37;;
63444;SDS011;49573;47.682;9.170;2024-01-11T08:02:52;39.17;;;16.63;;
63444;SDS011;49573;47.682;9.170;2024-01-11T08:05:39;43.30;;;17.70;;
63444;SDS011;49573;47.682;9.170;2024-01-11T08:08:25;44.77;;;18.40;;
63444;SDS011;49573;47.682;9.170;2024-01-11T08:11:11;46.87;;;18.93;;
63444;SDS011;49573;47.682;9.170;2024-01-11T08:13:59;37.97;;;17.83;;
63444;SDS011;49573;47.682;9.170;2024-01-11T08:16:45;41.73;;;18.43;;
63444;SDS011;49573;47.682;9.170;2024-01-11T08:19:31;41.13;;;19.33;;
63444;SDS011;49573;47.682;9.170;2024-01-11T08:22:18;43.20;;;17.92;;
63444;SDS011;49573;47.682;9.170;2024-01-11T08:25:04;41.60;;;18.13;;
63444;SDS011;49573;47.682;9.170;2024-01-11T08:27:51;40.53;;;20.05;;
63444;SDS011;49573;47.682;9.170;2024-01-11T08:30:38;39.60;;;17.90;;
63444;SDS011;49573;47.682;9.170;2024-01-11T08:33:24;42.67;;;17.90;;
63444;SDS011;49573;47.682;9.170;2024-01-11T08:36:11;42.63;;;17.73;;
63444;SDS011;49573;47.682;9.170;2024-01-11T08:38:57;33.67;;;16.00;;
63444;SDS011;49573;47.682;9.170;2024-01-11T08:41:43;41.40;;;17.50;;
63444;SDS011;49573;47.682;9.170;2024-01-11T08:44:29;42.43;;;19.00;;
63444;SDS011;49573;47.682;9.170;2024-01-11T08:47:16;38.47;;;17.33;;
63444;SDS011;49573;47.682;9.170;2024-01-11T08:50:02;41.10;;;18.53;;
63444;SDS011;49573;47.682;9.170;2024-01-11T08:52:51;41.47;;;18.47;;
63444;SDS011;49573;47.682;9.170;2024-01-11T08:55:37;41.17;;;18.33;;
63444;SDS011;49573;47.682;9.170;2024-01-11T08:58:23;43.17;;;19.33;;
63444;SDS011;49573;47.682;9.170;2024-01-11T09:01:09;39.08;;;17.50;;
63444;SDS011;49573;47.682;9.170;2024-01-11T09:03:57;38.00;;;17.38;;
63444;SDS011;49573;47.682;9.170;2024-01-11T09:06:43;36.67;;;17.10;;
63444;SDS011;49573;47.682;9.170;2024-01-11T09:09:29;43.35;;;17.90;;
63444;SDS011;49573;47.682;9.170;2024-01-11T09:12:15;45.10;;;18.93;;
63444;SDS011;49573;47.682;9.170;2024-01-11T09:15:02;38.83;;;16.53;;
63444;SDS011;49573;47.682;9.170;2024-01-11T09:17:49;37.70;;;16.67;;
63444;SDS011;49573;47.682;9.170;2024-01-11T09:20:37;39.55;;;17.15;;
63444;SDS011;49573;47.682;9.170;2024-01-11T09:23:23;39.47;;;16.93;;
63444;SDS011;49573;47.682;9.170;2024-01-11T09:26:09;41.13;;;18.07;;
63444;SDS011;49573;47.682;9.170;2024-01-11T09:28:55;41.30;;;18.23;;
63444;SDS011;49573;47.682;9.170;2024-01-11T09:31:41;37.27;;;17.53;;
63444;SDS011;49573;47.682;9.170;2024-01-11T09:34:27;38.80;;;16.60;;
63444;SDS011;49573;47.682;9.170;2024-01-11T09:37:15;37.93;;;16.37;;
63444;SDS011;49573;47.682;9.170;2024-01-11T09:40:01;39.60;;;17.20;;
63444;SDS011;49573;47.682;9.170;2024-01-11T09:42:48;39.72;;;16.80;;
63444;SDS011;49573;47.682;9.170;2024-01-11T09:45:34;38.15;;;15.93;;
63444;SDS011;49573;47.682;9.170;2024-01-11T09:48:22;36.67;;;15.97;;
63444;SDS011;49573;47.682;9.170;2024-01-11T09:51:10;37.50;;;17.73;;
63444;SDS011;49573;47.682;9.170;2024-01-11T09:54:01;59.07;;;26.20;;
63444;SDS011;49573;47.682;9.170;2024-01-11T09:56:47;43.23;;;18.40;;
63444;SDS011;49573;47.682;9.170;2024-01-11T09:59:35;38.40;;;17.37;;
63444;SDS011;49573;47.682;9.170;2024-01-11T10:02:22;37.35;;;16.55;;
63444;SDS011;49573;47.682;9.170;2024-01-11T10:05:09;34.30;;;17.23;;
63444;SDS011;49573;47.682;9.170;2024-01-11T10:07:56;38.13;;;16.53;;
63444;SDS011;49573;47.682;9.170;2024-01-11T10:10:43;35.13;;;16.10;;
63444;SDS011;49573;47.682;9.170;2024-01-11T10:13:30;37.13;;;15.37;;
63444;SDS011;49573;47.682;9.170;2024-01-11T10:16:16;35.72;;;15.68;;
63444;SDS011;49573;47.682;9.170;2024-01-11T10:19:02;35.70;;;16.03;;
63444;SDS011;49573;47.682;9.170;2024-01-11T10:21:49;39.25;;;16.40;;
63444;SDS011;49573;47.682;9.170;2024-01-11T10:24:35;38.10;;;16.27;;
63444;SDS011;49573;47.682;9.170;2024-01-11T10:27:25;34.88;;;15.35;;
63444;SDS011;49573;47.682;9.170;2024-01-11T10:30:12;36.97;;;16.10;;
63444;SDS011;49573;47.682;9.170;2024-01-11T10:33:01;39.20;;;16.70;;
63444;SDS011;49573;47.682;9.170;2024-01-11T10:35:47;38.13;;;15.53;;
63444;SDS011;49573;47.682;9.170;2024-01-11T10:38:37;34.97;;;15.57;;
63444;SDS011;49573;47.682;9.170;2024-01-11T10:41:24;36.40;;;15.93;;
63444;SDS011;49573;47.682;9.170;2024-01-11T10:44:15;43.17;;;16.40;;
63444;SDS011;49573;47.682;9.170;2024-01-11T10:47:04;36.40;;;15.90;;
63444;SDS011;49573;47.682;9.170;2024-01-11T10:49:54;36.73;;;15.40;;
63444;SDS011;49573;47.682;9.170;2024-01-11T10:52:43;35.97;;;16.27;;
63444;SDS011;49573;47.682;9.170;2024-01-11T10:55:41;40.33;;;16.20;;
63444;SDS011;49573;47.682;9.170;2024-01-11T10:58:29;37.87;;;15.90;;
63444;SDS011;49573;47.682;9.170;2024-01-11T11:01:18;35.43;;;14.47;;
63444;SDS011;49573;47.682;9.170;2024-01-11T11:04:06;30.67;;;13.70;;
63444;SDS011;49573;47.682;9.170;2024-01-11T11:06:54;33.22;;;14.85;;
63444;SDS011;49573;47.682;9.170;2024-01-11T11:09:44;29.97;;;14.60;;
63444;SDS011;49573;47.682;9.170;2024-01-11T11:12:31;34.93;;;14.20;;
63444;SDS011;49573;47.682;9.170;2024-01-11T11:15:19;31.57;;;14.50;;
63444;SDS011;49573;47.682;9.170;2024-01-11T11:18:08;34.70;;;14.07;;
63444;SDS011;49573;47.682;9.170;2024-01-11T11:20:55;33.40;;;13.87;;
63444;SDS011;49573;47.682;9.170;2024-01-11T11:23:41;36.93;;;14.50;;
63444;SDS011;49573;47.682;9.170;2024-01-11T11:29:17;32.73;;;14.27;;
63444;SDS011;49573;47.682;9.170;2024-01-11T11:32:05;33.07;;;13.67;;
63444;SDS011;49573;47.682;9.170;2024-01-11T11:34:53;33.03;;;13.90;;
63444;SDS011;49573;47.682;9.170;2024-01-11T11:37:39;30.43;;;12.93;;
63444;SDS011;49573;47.682;9.170;2024-01-11T11:40:31;33.00;;;13.90;;
63444;SDS011;49573;47.682;9.170;2024-01-11T11:43:19;32.10;;;13.80;;
63444;SDS011;49573;47.682;9.170;2024-01-11T11:46:06;34.47;;;13.13;;
63444;SDS011;49573;47.682;9.170;2024-01-11T11:48:53;31.73;;;13.70;;
63444;SDS011;49573;47.682;9.170;2024-01-11T11:51:42;35.83;;;14.50;;
63444;SDS011;49573;47.682;9.170;2024-01-11T11:54:29;30.30;;;13.00;;
63444;SDS011;49573;47.682;9.170;2024-01-11T11:57:16;28.90;;;11.97;;
63444;SDS011;49573;47.682;9.170;2024-01-11T12:00:03;31.27;;;13.50;;
63444;SDS011;49573;47.682;9.170;2024-01-11T12:02:52;27.50;;;12.10;;
63444;SDS011;49573;47.682;9.170;2024-01-11T12:05:42;26.20;;;12.30;;
63444;SDS011;49573;47.682;9.170;2024-01-11T12:08:30;24.85;;;10.65;;
63444;SDS011;49573;47.682;9.170;2024-01-11T12:11:17;25.30;;;11.07;;
63444;SDS011;49573;47.682;9.170;2024-01-11T12:14:04;24.87;;;10.37;;
63444;SDS011;49573;47.682;9.170;2024-01-11T12:16:55;25.40;;;10.55;;
63444;SDS011;49573;47.682;9.170;2024-01-11T12:19:41;24.37;;;11.40;;
63444;SDS011;49573;47.682;9.170;2024-01-11T12:22:27;25.55;;;11.25;;
63444;SDS011;49573;47.682;9.170;2024-01-11T12:25:15;24.47;;;11.30;;
63444;SDS011;49573;47.682;9.170;2024-01-11T12:28:01;25.23;;;11.10;;
63444;SDS011;49573;47.682;9.170;2024-01-11T12:30:48;22.42;;;10.55;;
63444;SDS011;49573;47.682;9.170;2024-01-11T12:33:34;21.50;;;11.77;;
63444;SDS011;49573;47.682;9.170;2024-01-11T12:36:20;24.27;;;10.98;;
63444;SDS011;49573;47.682;9.170;2024-01-11T12:39:07;23.48;;;11.55;;
63444;SDS011;49573;47.682;9.170;2024-01-11T12:41:55;26.17;;;11.60;;
63444;SDS011;49573;47.682;9.170;2024-01-11T12:44:42;23.40;;;10.53;;
63444;SDS011;49573;47.682;9.170;2024-01-11T12:47:29;24.63;;;11.13;;
63444;SDS011;49573;47.682;9.170;2024-01-11T12:50:16;26.40;;;12.63;;
63444;SDS011;49573;47.682;9.170;2024-01-11T12:56:01;29.15;;;13.40;;
63444;SDS011;49573;47.682;9.170;2024-01-11T12:58:50;29.33;;;13.73;;
63444;SDS011;49573;47.682;9.170;2024-01-11T13:01:36;26.83;;;11.87;;
63444;SDS011;49573;47.682;9.170;2024-01-11T13:04:23;26.03;;;11.93;;
63444;SDS011;49573;47.682;9.170;2024-01-11T13:07:10;25.73;;;11.77;;
63444;SDS011;49573;47.682;9.170;2024-01-11T13:09:57;27.53;;;12.23;;
63444;SDS011;49573;47.682;9.170;2024-01-11T13:12:43;27.17;;;11.77;;
63444;SDS011;49573;47.682;9.170;2024-01-11T13:15:32;24.43;;;10.87;;
63444;SDS011;49573;47.682;9.170;2024-01-11T13:18:18;27.93;;;11.97;;
63444;SDS011;49573;47.682;9.170;2024-01-11T13:21:04;24.55;;;11.00;;
63444;SDS011;49573;47.682;9.170;2024-01-11T13:23:52;30.47;;;12.23;;
63444;SDS011;49573;47.682;9.170;2024-01-11T13:26:39;25.33;;;12.23;;
63444;SDS011;49573;47.682;9.170;2024-01-11T13:29:25;24.83;;;11.73;;
63444;SDS011;49573;47.682;9.170;2024-01-11T13:32:13;24.98;;;11.20;;
63444;SDS011;49573;47.682;9.170;2024-01-11T13:34:59;27.17;;;11.63;;
63444;SDS011;49573;47.682;9.170;2024-01-11T13:37:45;26.60;;;11.40;;
63444;SDS011;49573;47.682;9.170;2024-01-11T13:40:32;25.13;;;11.13;;
63444;SDS011;49573;47.682;9.170;2024-01-11T13:43:18;28.42;;;12.38;;
63444;SDS011;49573;47.682;9.170;2024-01-11T13:46:04;33.25;;;13.52;;
63444;SDS011;49573;47.682;9.170;2024-01-11T13:48:52;29.15;;;12.50;;
63444;SDS011;49573;47.682;9.170;2024-01-11T13:51:38;27.58;;;12.00;;
63444;SDS011;49573;47.682;9.170;2024-01-11T13:54:24;24.33;;;11.35;;
63444;SDS011;49573;47.682;9.170;2024-01-11T13:57:10;24.73;;;11.97;;
63444;SDS011;49573;47.682;9.170;2024-01-11T13:59:56;26.13;;;11.60;;
63444;SDS011;49573;47.682;9.170;2024-01-11T14:02:42;23.92;;;11.38;;
63444;SDS011;49573;47.682;9.170;2024-01-11T14:05:30;26.47;;;12.10;;
63444;SDS011;49573;47.682;9.170;2024-01-11T14:08:16;24.67;;;10.93;;
63444;SDS011;49573;47.682;9.170;2024-01-11T14:11:02;25.87;;;11.73;;
63444;SDS011;49573;47.682;9.170;2024-01-11T14:13:49;24.27;;;11.13;;
63444;SDS011;49573;47.682;9.170;2024-01-11T14:16:35;27.85;;;11.27;;
63444;SDS011;49573;47.682;9.170;2024-01-11T14:19:21;27.93;;;12.10;;
63444;SDS011;49573;47.682;9.170;2024-01-11T14:22:09;24.50;;;11.43;;
63444;SDS011;49573;47.682;9.170;2024-01-11T14:24:55;27.17;;;12.20;;
63444;SDS011;49573;47.682;9.170;2024-01-11T14:27:41;27.85;;;12.05;;
63444;SDS011;49573;47.682;9.170;2024-01-11T14:30:27;28.42;;;12.88;;
63444;SDS011;49573;47.682;9.170;2024-01-11T14:33:13;28.80;;;12.20;;
63444;SDS011;49573;47.682;9.170;2024-01-11T14:35:59;27.87;;;11.53;;
63444;SDS011;49573;47.682;9.170;2024-01-11T14:38:47;26.88;;;12.40;;
63444;SDS011;49573;47.682;9.170;2024-01-11T14:41:33;29.42;;;11.35;;
63444;SDS011;49573;47.682;9.170;2024-01-11T14:44:19;31.23;;;13.65;;
63444;SDS011;49573;47.682;9.170;2024-01-11T14:47:05;24.30;;;12.10;;
63444;SDS011;49573;47.682;9.170;2024-01-11T14:49:52;25.60;;;12.55;;
63444;SDS011;49573;47.682;9.170;2024-01-11T14:52:38;24.50;;;11.35;;
63444;SDS011;49573;47.682;9.170;2024-01-11T14:55:25;25.27;;;12.13;;
63444;SDS011;49573;47.682;9.170;2024-01-11T14:58:11;27.63;;;12.00;;
63444;SDS011;49573;47.682;9.170;2024-01-11T15:00:57;30.13;;;12.35;;
63444;SDS011;49573;47.682;9.170;2024-01-11T15:03:43;27.90;;;12.17;;
63444;SDS011;49573;47.682;9.170;2024-01-11T15:06:30;33.27;;;13.33;;
63444;SDS011;49573;47.682;9.170;2024-01-11T15:09:16;23.75;;;11.95;;
63444;SDS011;49573;47.682;9.170;2024-01-11T15:12:04;26.67;;;12.07;;
63444;SDS011;49573;47.682;9.170;2024-01-11T15:14:50;28.88;;;12.77;;
63444;SDS011;49573;47.682;9.170;2024-01-11T15:17:36;28.35;;;12.13;;
63444;SDS011;49573;47.682;9.170;2024-01-11T15:20:22;35.97;;;12.47;;
63444;SDS011;49573;47.682;9.170;2024-01-11T15:23:08;29.03;;;12.63;;
63444;SDS011;49573;47.682;9.170;2024-01-11T15:25:54;26.92;;;12.73;;
63444;SDS011;49573;47.682;9.170;2024-01-11T15:28:41;30.13;;;12.60;;
63444;SDS011;49573;47.682;9.170;2024-01-11T15:31:28;30.48;;;13.20;;
63444;SDS011;49573;47.682;9.170;2024-01-11T15:34:14;28.90;;;13.13;;
63444;SDS011;49573;47.682;9.170;2024-01-11T15:37:00;32.53;;;13.43;;
63444;SDS011;49573;47.682;9.170;2024-01-11T15:39:46;28.63;;;11.87;;
63444;SDS011;49573;47.682;9.170;2024-01-11T15:42:32;35.40;;;14.18;;
63444;SDS011;49573;47.682;9.170;2024-01-11T15:48:06;27.63;;;12.37;;
63444;SDS011;49573;47.682;9.170;2024-01-11T15:50:52;34.28;;;13.45;;
63444;SDS011;49573;47.682;9.170;2024-01-11T15:53:42;33.92;;;13.25;;
63444;SDS011;49573;47.682;9.170;2024-01-11T15:56:29;45.05;;;17.23;;
63444;SDS011;49573;47.682;9.170;2024-01-11T15:59:15;38.73;;;15.60;;
63444;SDS011;49573;47.682;9.170;2024-01-11T16:02:02;40.92;;;16.48;;
63444;SDS011;49573;47.682;9.170;2024-01-11T16:04:49;42.15;;;17.30;;
63444;SDS011;49573;47.682;9.170;2024-01-11T16:07:35;46.67;;;15.83;;
63444;SDS011;49573;47.682;9.170;2024-01-11T16:10:22;39.27;;;15.50;;
63444;SDS011;49573;47.682;9.170;2024-01-11T16:13:08;36.72;;;15.07;;
63444;SDS011;49573;47.682;9.170;2024-01-11T16:15:54;34.80;;;14.77;;
63444;SDS011;49573;47.682;9.170;2024-01-11T16:18:43;45.33;;;17.53;;
63444;SDS011;49573;47.682;9.170;2024-01-11T16:21:29;59.03;;;23.00;;
63444;SDS011;49573;47.682;9.170;2024-01-11T16:24:16;52.43;;;21.17;;
63444;SDS011;49573;47.682;9.170;2024-01-11T16:27:02;37.50;;;15.52;;